Time;durP1;ratioP1;P1;durP2;ratioP2;P2;SDS_P1;SDS_P2;PMS_P1;PMS_P2;Temp;Humidity;BMP_temperature;BMP_pressure;BME280_temperature;BME280_humidity;BME280_pressure;Samples;Min_cycle;Max_cycle;Signal;HPM_P1;HPM_P2
2022/11/24 00:01:17;;;;;;;8.27;3.35;;;5.40;99.90;;;;;;5006998;28;20053;-65
2022/11/24 00:03:54;;;;;;;14.20;3.92;;;5.40;99.90;;;;;;4977449;28;20122;-66
2022/11/24 00:06:19;;;;;;;11.30;3.28;;;5.40;99.90;;;;;;5005688;28;20544;-65
2022/11/24 00:08:45;;;;;;;9.50;3.67;;;5.40;99.90;;;;;;5010609;28;20054;-66
2022/11/24 00:11:16;;;;;;;8.52;3.60;;;5.40;99.90;;;;;;5009957;28;20045;-65
2022/11/24 00:13:43;;;;;;;11.98;4.28;;;5.30;99.90;;;;;;5011572;28;20046;-66
2022/11/24 00:16:11;;;;;;;12.98;4.80;;;5.30;99.90;;;;;;4991736;28;20138;-66
2022/11/24 00:18:38;;;;;;;12.45;3.80;;;5.30;99.90;;;;;;5006668;28;20117;-66
2022/11/24 00:21:04;;;;;;;13.68;4.90;;;5.30;99.90;;;;;;5010114;28;20069;-66
2022/11/24 00:23:29;;;;;;;8.55;3.33;;;5.40;99.90;;;;;;5011228;28;20403;-66
2022/11/24 00:26:02;;;;;;;9.48;4.18;;;5.40;99.90;;;;;;5006623;28;20070;-66
2022/11/24 00:28:28;;;;;;;8.98;3.40;;;5.40;99.90;;;;;;5026502;28;20053;-65
2022/11/24 00:30:55;;;;;;;8.32;3.10;;;5.40;99.90;;;;;;5011207;28;20131;-67
2022/11/24 00:33:21;;;;;;;7.68;3.92;;;5.40;99.90;;;;;;5010374;28;20149;-65
2022/11/24 00:35:57;;;;;;;10.27;3.60;;;5.40;99.90;;;;;;5005552;28;20165;-66
2022/11/24 00:38:24;;;;;;;10.13;3.42;;;5.40;99.90;;;;;;5009464;28;20045;-66
2022/11/24 00:40:50;;;;;;;11.60;3.67;;;5.40;99.90;;;;;;4993661;28;20133;-66
2022/11/24 00:43:16;;;;;;;12.30;3.90;;;5.40;99.90;;;;;;5009122;28;20125;-66
2022/11/24 00:45:42;;;;;;;8.98;3.15;;;5.40;99.90;;;;;;5007886;28;20061;-65
2022/11/24 00:48:08;;;;;;;8.23;3.30;;;5.40;99.90;;;;;;5010155;28;20050;-65
2022/11/24 00:50:33;;;;;;;11.00;3.55;;;5.40;99.90;;;;;;4992624;28;20057;-66
2022/11/24 00:52:59;;;;;;;8.73;3.65;;;5.40;99.90;;;;;;5007717;28;20041;-65
2022/11/24 00:55:25;;;;;;;9.95;3.50;;;5.50;99.90;;;;;;5009938;28;20042;-65
2022/11/24 00:57:50;;;;;;;8.35;2.90;;;5.50;99.90;;;;;;5009649;28;20057;-65
2022/11/24 01:00:18;;;;;;;9.45;3.55;;;5.40;99.90;;;;;;5006757;28;20053;-66
2022/11/24 01:02:44;;;;;;;7.35;3.30;;;5.50;99.90;;;;;;5008829;28;20092;-67
2022/11/24 01:05:10;;;;;;;10.73;3.67;;;5.40;99.90;;;;;;5005526;28;20136;-68
2022/11/24 01:07:36;;;;;;;9.38;3.63;;;5.40;99.90;;;;;;5010811;28;20104;-65
2022/11/24 01:10:02;;;;;;;12.70;3.58;;;5.40;99.90;;;;;;5009942;28;20073;-65
2022/11/24 01:12:29;;;;;;;10.32;4.03;;;5.40;99.90;;;;;;5009482;28;20048;-65
2022/11/24 01:14:55;;;;;;;10.07;3.63;;;5.40;99.90;;;;;;5011604;28;20074;-65
2022/11/24 01:17:20;;;;;;;11.52;3.58;;;5.50;99.90;;;;;;5008818;28;20484;-66
2022/11/24 01:19:48;;;;;;;9.63;3.40;;;5.50;99.90;;;;;;5010166;28;20136;-65
2022/11/24 01:22:14;;;;;;;10.15;4.05;;;5.50;99.90;;;;;;5005752;28;20049;-66
2022/11/24 01:24:40;;;;;;;10.48;3.30;;;5.40;99.90;;;;;;5005585;28;20041;-65
2022/11/24 01:27:05;;;;;;;11.20;4.53;;;5.40;99.90;;;;;;5039964;28;20548;-64
2022/11/24 01:29:31;;;;;;;11.68;3.78;;;5.40;99.90;;;;;;5022117;28;20089;-65
2022/11/24 01:31:58;;;;;;;7.95;3.70;;;5.30;99.90;;;;;;5039333;28;20095;-65
2022/11/24 01:34:25;;;;;;;8.93;3.63;;;5.30;99.90;;;;;;5009017;28;20057;-65
2022/11/24 01:36:52;;;;;;;9.38;4.07;;;5.30;99.90;;;;;;5008820;28;20052;-66
2022/11/24 01:39:18;;;;;;;10.38;4.15;;;5.40;99.90;;;;;;4988411;28;20894;-65
2022/11/24 01:41:44;;;;;;;11.82;3.70;;;5.30;99.90;;;;;;4989533;28;20132;-65
2022/11/24 01:44:26;;;;;;;8.98;3.30;;;5.40;99.90;;;;;;5008193;28;20084;-65
2022/11/24 01:46:57;;;;;;;9.05;4.45;;;5.40;99.90;;;;;;5005593;28;20420;-66
2022/11/24 01:49:40;;;;;;;9.88;4.13;;;5.40;99.90;;;;;;5005794;28;20046;-65
2022/11/24 01:52:27;;;;;;;10.00;4.00;;;5.40;99.90;;;;;;5009705;28;20050;-64
2022/11/24 01:55:08;;;;;;;9.02;3.95;;;5.50;99.90;;;;;;5003539;28;20049;-64
2022/11/24 01:57:37;;;;;;;8.98;4.00;;;5.50;99.90;;;;;;5008433;28;20050;-64
2022/11/24 02:00:10;;;;;;;8.55;3.83;;;5.40;99.90;;;;;;5008953;28;20132;-64
2022/11/24 02:02:36;;;;;;;11.55;4.20;;;5.50;99.90;;;;;;5008324;28;20092;-64
2022/11/24 02:05:04;;;;;;;7.95;3.90;;;5.50;99.90;;;;;;4989545;28;20070;-64
2022/11/24 02:07:30;;;;;;;7.05;3.90;;;5.50;99.90;;;;;;5009032;28;20046;-64
2022/11/24 02:09:58;;;;;;;10.43;4.18;;;5.50;99.90;;;;;;5034208;28;20640;-64
2022/11/24 02:12:26;;;;;;;11.68;3.70;;;5.50;99.90;;;;;;5008145;28;20542;-63
2022/11/24 02:14:52;;;;;;;8.38;3.70;;;5.50;99.90;;;;;;5007123;28;20041;-64
2022/11/24 02:17:17;;;;;;;11.32;3.95;;;5.50;99.90;;;;;;5008685;28;20121;-64
2022/11/24 02:19:56;;;;;;;8.20;3.88;;;5.60;99.90;;;;;;4991679;28;20448;-64
2022/11/24 02:22:29;;;;;;;9.85;4.28;;;5.50;99.90;;;;;;5008824;28;20056;-64
2022/11/24 02:25:21;;;;;;;10.48;4.28;;;5.50;99.90;;;;;;5008778;28;20379;-63
2022/11/24 02:27:47;;;;;;;8.80;3.60;;;5.50;99.90;;;;;;5003746;28;20546;-64
2022/11/24 02:30:13;;;;;;;8.82;3.95;;;5.50;99.90;;;;;;5012106;28;20141;-64
2022/11/24 02:32:39;;;;;;;8.90;3.70;;;5.50;99.90;;;;;;5004526;28;20097;-64
2022/11/24 02:35:06;;;;;;;7.80;3.60;;;5.50;99.90;;;;;;5008700;28;20057;-64
2022/11/24 02:37:32;;;;;;;9.63;4.57;;;5.40;99.90;;;;;;5007245;28;20058;-63
2022/11/24 02:39:57;;;;;;;8.80;3.63;;;5.50;99.90;;;;;;4995090;28;20121;-63
2022/11/24 02:42:25;;;;;;;10.05;4.10;;;5.50;99.90;;;;;;5007749;28;20081;-64
2022/11/24 02:44:54;;;;;;;9.23;3.50;;;5.50;99.90;;;;;;4991799;28;20084;-64
2022/11/24 02:47:20;;;;;;;9.45;3.22;;;5.50;99.90;;;;;;4993582;28;20546;-64
2022/11/24 02:49:46;;;;;;;6.30;3.50;;;5.50;99.90;;;;;;4995519;28;20107;-64
2022/11/24 02:52:11;;;;;;;9.70;4.15;;;5.50;99.90;;;;;;5018223;28;20042;-65
2022/11/24 02:54:38;;;;;;;9.25;3.65;;;5.50;99.90;;;;;;4991427;28;20475;-64
2022/11/24 02:57:04;;;;;;;10.57;4.70;;;5.50;99.90;;;;;;5017612;28;20072;-64
2022/11/24 02:59:30;;;;;;;7.82;3.75;;;5.60;99.90;;;;;;5006296;28;20117;-64
2022/11/24 03:01:56;;;;;;;9.20;3.80;;;5.60;99.90;;;;;;5008923;28;20061;-65
2022/11/24 03:04:21;;;;;;;9.55;3.95;;;5.70;99.90;;;;;;5008367;28;20049;-65
2022/11/24 03:06:47;;;;;;;8.45;3.80;;;5.70;99.90;;;;;;5007371;28;20045;-64
2022/11/24 03:09:13;;;;;;;9.38;3.90;;;5.70;99.90;;;;;;5020151;28;20050;-64
2022/11/24 03:11:40;;;;;;;9.57;4.35;;;5.70;99.90;;;;;;5007910;28;20514;-64
2022/11/24 03:14:06;;;;;;;8.75;3.92;;;5.70;99.90;;;;;;5008046;28;20050;-66
2022/11/24 03:16:31;;;;;;;8.05;3.60;;;5.60;99.90;;;;;;5020581;28;20042;-64
2022/11/24 03:18:59;;;;;;;9.10;3.92;;;5.60;99.90;;;;;;4991986;28;20057;-65
2022/11/24 03:21:24;;;;;;;10.15;3.92;;;5.60;99.90;;;;;;5006900;28;20510;-64
2022/11/24 03:23:51;;;;;;;8.73;4.25;;;5.60;99.90;;;;;;4974841;28;20049;-66
2022/11/24 03:26:18;;;;;;;9.52;4.38;;;5.60;99.90;;;;;;5009997;28;20059;-65
2022/11/24 03:28:43;;;;;;;9.02;4.13;;;5.60;99.90;;;;;;5011610;28;20586;-64
2022/11/24 03:31:09;;;;;;;10.98;4.38;;;5.60;99.90;;;;;;5011037;28;20065;-64
2022/11/24 03:33:35;;;;;;;11.13;4.40;;;5.60;99.90;;;;;;5011891;28;20629;-64
2022/11/24 03:36:01;;;;;;;12.88;4.25;;;5.70;99.90;;;;;;5010008;28;20046;-64
2022/11/24 03:38:27;;;;;;;8.32;4.32;;;5.70;99.90;;;;;;4995322;28;20057;-65
2022/11/24 03:40:54;;;;;;;8.30;4.05;;;5.70;99.90;;;;;;4994928;28;20530;-64
2022/11/24 03:43:19;;;;;;;10.68;4.20;;;5.70;99.90;;;;;;4987420;28;20155;-64
2022/11/24 03:45:46;;;;;;;10.32;4.20;;;5.80;99.90;;;;;;5011356;28;20484;-64
2022/11/24 03:48:12;;;;;;;9.75;4.50;;;5.80;99.90;;;;;;4993641;28;20050;-64
2022/11/24 03:50:39;;;;;;;12.00;4.07;;;5.80;99.90;;;;;;5008642;28;20111;-66
2022/11/24 03:53:05;;;;;;;11.65;4.25;;;5.80;99.90;;;;;;4994167;28;20133;-64
2022/11/24 03:55:30;;;;;;;12.32;4.15;;;5.80;99.90;;;;;;4994374;28;20153;-65
2022/11/24 03:57:56;;;;;;;8.50;3.92;;;5.90;99.90;;;;;;5010974;28;20046;-64
2022/11/24 04:00:22;;;;;;;12.20;4.15;;;5.90;99.90;;;;;;4978342;28;20045;-65
2022/11/24 04:02:47;;;;;;;10.88;4.40;;;5.90;99.90;;;;;;5008657;28;20459;-66
2022/11/24 04:05:13;;;;;;;12.73;3.90;;;5.90;99.90;;;;;;5010239;28;20126;-66
2022/11/24 04:07:39;;;;;;;11.57;4.80;;;5.90;99.90;;;;;;5010913;28;20065;-66
2022/11/24 04:10:05;;;;;;;12.93;4.47;;;5.90;99.90;;;;;;5010763;28;20525;-65
2022/11/24 04:12:43;;;;;;;10.18;4.32;;;5.90;99.90;;;;;;5009799;28;20107;-66
2022/11/24 04:15:13;;;;;;;12.02;4.70;;;5.90;99.90;;;;;;4996133;28;20073;-64
2022/11/24 04:17:38;;;;;;;11.35;4.38;;;5.90;99.90;;;;;;5009806;28;20129;-65
2022/11/24 04:20:05;;;;;;;12.20;4.05;;;5.80;99.90;;;;;;5023664;28;20121;-65
2022/11/24 04:22:31;;;;;;;10.43;4.43;;;5.90;99.90;;;;;;5024904;28;20802;-64
2022/11/24 04:24:57;;;;;;;9.90;4.15;;;5.80;99.90;;;;;;5023127;28;20050;-63
2022/11/24 04:27:23;;;;;;;9.23;3.85;;;5.80;99.90;;;;;;5041379;28;20050;-64
2022/11/24 04:29:49;;;;;;;11.30;4.47;;;5.80;99.90;;;;;;5027071;28;20127;-65
2022/11/24 04:32:16;;;;;;;10.70;4.45;;;5.80;99.90;;;;;;5010520;28;20426;-65
2022/11/24 04:34:41;;;;;;;13.35;4.40;;;5.80;99.90;;;;;;5009120;28;20576;-65
2022/11/24 04:37:09;;;;;;;11.30;4.53;;;5.70;99.90;;;;;;4992584;28;20129;-65
2022/11/24 04:39:35;;;;;;;10.00;4.32;;;5.70;99.90;;;;;;5008200;28;20050;-65
2022/11/24 04:42:00;;;;;;;9.18;4.57;;;5.70;99.90;;;;;;5009850;28;20140;-64
2022/11/24 04:44:26;;;;;;;11.48;5.05;;;5.80;99.90;;;;;;5010913;28;20050;-64
2022/11/24 04:46:53;;;;;;;12.90;4.68;;;5.80;99.90;;;;;;5010658;28;20541;-64
2022/11/24 04:49:19;;;;;;;9.27;3.90;;;5.80;99.90;;;;;;4993420;28;20629;-64
2022/11/24 04:51:44;;;;;;;16.65;4.90;;;5.80;99.90;;;;;;4992908;28;20057;-64
2022/11/24 04:54:11;;;;;;;12.88;4.78;;;5.80;99.90;;;;;;5009771;28;20080;-65
2022/11/24 04:56:37;;;;;;;10.48;4.90;;;5.80;99.90;;;;;;4992531;28;20046;-64
2022/11/24 04:59:03;;;;;;;12.95;5.05;;;5.80;99.90;;;;;;4990484;28;20046;-64
2022/11/24 05:01:29;;;;;;;11.43;4.25;;;5.80;99.90;;;;;;5025225;28;20057;-66
2022/11/24 05:03:56;;;;;;;9.73;4.18;;;5.90;99.90;;;;;;5002569;28;20120;-64
2022/11/24 05:06:22;;;;;;;9.20;3.77;;;5.90;99.90;;;;;;5009750;28;20135;-64
2022/11/24 05:08:48;;;;;;;13.82;4.93;;;5.90;99.90;;;;;;5009473;28;20448;-64
2022/11/24 05:11:14;;;;;;;11.60;4.05;;;5.90;99.90;;;;;;5017165;28;20057;-64
2022/11/24 05:13:40;;;;;;;9.43;4.00;;;6.00;99.90;;;;;;4992812;28;20046;-65
2022/11/24 05:16:06;;;;;;;12.18;4.22;;;6.00;99.90;;;;;;4993539;28;20124;-64
2022/11/24 05:18:32;;;;;;;11.38;4.13;;;6.00;99.90;;;;;;4977029;28;20069;-65
2022/11/24 05:20:58;;;;;;;10.05;4.10;;;6.00;99.90;;;;;;5005404;28;20140;-65
2022/11/24 05:23:23;;;;;;;10.15;3.75;;;6.00;99.90;;;;;;5009133;28;20041;-65
2022/11/24 05:25:49;;;;;;;17.17;3.97;;;6.10;99.90;;;;;;4993320;28;20076;-66
2022/11/24 05:28:16;;;;;;;11.65;4.13;;;6.10;99.90;;;;;;4988842;28;20050;-65
2022/11/24 05:30:41;;;;;;;12.05;4.15;;;6.10;99.90;;;;;;5006027;28;20543;-65
2022/11/24 05:33:17;;;;;;;10.15;3.60;;;6.10;99.90;;;;;;5009403;28;20049;-65
2022/11/24 05:35:44;;;;;;;11.63;3.95;;;6.10;99.90;;;;;;4993799;28;20049;-64
2022/11/24 05:38:09;;;;;;;14.77;4.35;;;6.10;99.90;;;;;;5008205;28;20050;-65
2022/11/24 05:40:36;;;;;;;10.40;4.07;;;6.10;99.90;;;;;;5008801;28;20060;-63
2022/11/24 05:43:01;;;;;;;16.17;4.13;;;6.10;99.90;;;;;;5009349;28;20065;-65
2022/11/24 05:45:27;;;;;;;11.98;4.10;;;6.10;99.90;;;;;;5005373;28;20652;-64
2022/11/24 05:47:53;;;;;;;16.10;5.70;;;6.20;99.90;;;;;;5009128;28;20041;-64
2022/11/24 05:50:19;;;;;;;12.27;4.55;;;6.20;99.90;;;;;;5012610;28;20383;-65
2022/11/24 05:52:45;;;;;;;13.40;3.70;;;6.20;99.90;;;;;;5008673;28;20391;-66
2022/11/24 05:55:12;;;;;;;14.18;5.00;;;6.20;99.90;;;;;;5003923;28;20046;-65
2022/11/24 05:57:38;;;;;;;9.02;4.20;;;6.20;99.90;;;;;;4986627;28;20050;-64
2022/11/24 06:00:07;;;;;;;12.48;4.43;;;6.20;99.90;;;;;;5008543;28;20478;-65
2022/11/24 06:02:32;;;;;;;12.48;4.13;;;6.20;99.90;;;;;;4992828;28;20041;-64
2022/11/24 06:04:58;;;;;;;12.90;4.45;;;6.20;99.90;;;;;;4990716;28;20042;-65
2022/11/24 06:07:25;;;;;;;9.18;4.25;;;6.20;99.90;;;;;;5024275;28;20046;-64
2022/11/24 06:09:51;;;;;;;10.68;4.60;;;6.20;99.90;;;;;;5009364;28;20053;-64
2022/11/24 06:12:17;;;;;;;13.23;4.85;;;6.20;99.90;;;;;;4988293;28;20054;-64
2022/11/24 06:14:43;;;;;;;11.60;4.20;;;6.20;99.90;;;;;;5017123;28;20384;-65
2022/11/24 06:17:10;;;;;;;14.77;5.10;;;6.20;99.90;;;;;;4991641;28;20060;-64
2022/11/24 06:19:36;;;;;;;15.77;4.63;;;6.10;99.90;;;;;;5010747;28;20046;-64
2022/11/24 06:22:01;;;;;;;16.25;5.65;;;6.10;99.90;;;;;;5014944;28;20116;-64
2022/11/24 06:24:28;;;;;;;16.92;4.88;;;6.00;99.90;;;;;;5006607;28;20061;-63
2022/11/24 06:26:55;;;;;;;11.43;4.10;;;6.00;99.90;;;;;;5007864;28;20050;-64
2022/11/24 06:29:21;;;;;;;15.55;4.63;;;6.00;99.90;;;;;;5015762;28;20100;-64
2022/11/24 06:31:50;;;;;;;18.02;5.30;;;6.10;99.90;;;;;;4991289;28;20058;-64
2022/11/24 06:34:16;;;;;;;13.63;4.65;;;6.10;99.90;;;;;;5008697;28;20080;-64
2022/11/24 06:36:42;;;;;;;22.25;4.20;;;6.20;99.90;;;;;;4990584;28;20129;-64
2022/11/24 06:39:09;;;;;;;17.70;4.60;;;6.20;99.90;;;;;;4991354;28;20140;-65
2022/11/24 06:41:34;;;;;;;19.65;4.78;;;6.20;99.90;;;;;;5008096;28;20054;-64
2022/11/24 06:44:03;;;;;;;15.52;4.35;;;6.20;99.90;;;;;;5007899;28;20057;-64
2022/11/24 06:46:29;;;;;;;13.85;4.68;;;6.20;99.90;;;;;;5006077;28;20085;-64
2022/11/24 06:48:55;;;;;;;18.48;4.95;;;6.20;99.90;;;;;;5004626;28;20050;-63
2022/11/24 06:51:21;;;;;;;17.40;4.53;;;6.20;99.90;;;;;;4994236;28;20049;-63
2022/11/24 06:53:47;;;;;;;16.08;4.78;;;6.30;99.90;;;;;;5022206;28;20418;-65
2022/11/24 06:56:16;;;;;;;14.50;4.78;;;6.30;99.90;;;;;;4991820;28;20195;-64
2022/11/24 06:58:47;;;;;;;16.92;4.60;;;6.30;99.90;;;;;;4973785;28;20050;-64
2022/11/24 07:01:23;;;;;;;21.52;4.40;;;6.40;99.90;;;;;;4992370;28;20050;-65
2022/11/24 07:03:50;;;;;;;18.85;6.50;;;6.30;99.90;;;;;;5011951;28;20468;-65
2022/11/24 07:06:16;;;;;;;18.08;4.70;;;6.30;99.90;;;;;;5007631;28;20057;-64
2022/11/24 07:08:42;;;;;;;16.38;5.80;;;6.30;99.90;;;;;;5011500;28;20046;-64
2022/11/24 07:11:10;;;;;;;13.57;4.05;;;6.30;99.90;;;;;;4994843;28;20045;-64
2022/11/24 07:13:35;;;;;;;14.98;4.18;;;6.30;99.90;;;;;;4995716;28;20084;-63
2022/11/24 07:16:21;;;;;;;14.48;4.68;;;6.20;99.90;;;;;;5012042;28;20155;-65
2022/11/24 07:18:47;;;;;;;16.20;4.25;;;6.20;99.90;;;;;;5011026;28;20424;-64
2022/11/24 07:21:13;;;;;;;15.65;4.88;;;6.20;99.90;;;;;;5011445;28;20049;-64
2022/11/24 07:23:39;;;;;;;20.33;5.43;;;6.20;99.90;;;;;;5009979;28;20057;-65
2022/11/24 07:26:05;;;;;;;13.52;4.30;;;6.10;99.90;;;;;;5011403;28;20056;-64
2022/11/24 07:28:31;;;;;;;20.50;4.78;;;6.20;99.90;;;;;;5011365;28;20360;-64
2022/11/24 07:30:57;;;;;;;19.10;4.30;;;6.20;99.90;;;;;;4994930;28;20138;-64
2022/11/24 07:33:26;;;;;;;16.38;4.93;;;6.30;99.90;;;;;;4978743;28;20049;-64
2022/11/24 07:35:52;;;;;;;20.88;4.97;;;6.40;99.90;;;;;;4995320;28;20062;-64
2022/11/24 07:38:19;;;;;;;13.90;4.28;;;6.50;99.90;;;;;;5011455;28;20042;-66
2022/11/24 07:40:44;;;;;;;13.13;5.20;;;6.50;99.90;;;;;;4994989;28;20064;-65
2022/11/24 07:43:10;;;;;;;18.77;4.15;;;6.60;99.90;;;;;;5009109;28;20384;-65
2022/11/24 07:45:37;;;;;;;15.10;3.75;;;6.60;99.90;;;;;;5009561;28;20132;-66
2022/11/24 07:48:03;;;;;;;11.65;3.72;;;6.70;99.90;;;;;;5011506;28;20633;-65
2022/11/24 07:50:29;;;;;;;16.65;4.97;;;6.70;99.90;;;;;;4994331;28;20064;-65
2022/11/24 07:52:55;;;;;;;15.00;3.33;;;6.80;99.90;;;;;;5024080;28;20792;-66
2022/11/24 07:55:22;;;;;;;15.15;3.75;;;6.80;99.90;;;;;;5014718;28;20526;-66
2022/11/24 07:57:47;;;;;;;13.52;4.00;;;6.80;99.90;;;;;;4978447;28;20120;-65
2022/11/24 08:00:13;;;;;;;24.85;4.57;;;6.80;99.90;;;;;;5002291;28;20041;-66
2022/11/24 08:02:42;;;;;;;14.18;3.78;;;6.90;99.90;;;;;;4999808;28;20057;-66
2022/11/24 08:05:10;;;;;;;18.85;5.55;;;6.90;99.90;;;;;;5024629;28;20433;-66
2022/11/24 08:07:38;;;;;;;21.95;6.40;;;6.90;99.90;;;;;;4992318;28;20057;-66
2022/11/24 08:10:07;;;;;;;12.38;3.67;;;6.90;99.90;;;;;;5009997;28;20042;-66
2022/11/24 08:12:33;;;;;;;16.92;4.22;;;6.90;99.90;;;;;;5010263;28;20057;-65
2022/11/24 08:14:59;;;;;;;14.75;4.45;;;6.90;99.90;;;;;;5010913;28;20104;-65
2022/11/24 08:17:30;;;;;;;9.57;3.38;;;6.90;99.90;;;;;;4991450;28;20047;-65
2022/11/24 08:19:57;;;;;;;12.77;4.00;;;7.00;99.90;;;;;;4994180;28;20045;-66
2022/11/24 08:22:24;;;;;;;14.90;4.03;;;7.00;99.90;;;;;;5004609;28;20404;-65
2022/11/24 08:24:51;;;;;;;13.50;3.50;;;7.00;99.90;;;;;;4994644;28;20050;-66
2022/11/24 08:27:17;;;;;;;13.30;3.67;;;7.10;99.90;;;;;;5010609;28;20376;-65
2022/11/24 08:29:43;;;;;;;12.73;3.92;;;7.10;99.90;;;;;;4976623;28;20819;-64
2022/11/24 08:32:09;;;;;;;12.13;3.53;;;7.10;99.90;;;;;;5022184;28;20054;-64
2022/11/24 08:34:35;;;;;;;15.32;3.55;;;7.10;99.90;;;;;;4994215;28;20046;-65
2022/11/24 08:37:04;;;;;;;12.95;3.38;;;7.20;99.90;;;;;;5018608;28;20038;-65
2022/11/24 08:39:30;;;;;;;16.88;4.38;;;7.20;99.90;;;;;;5009209;28;20042;-64
2022/11/24 08:41:56;;;;;;;17.33;3.50;;;7.20;99.90;;;;;;5009487;28;20752;-64
2022/11/24 08:44:22;;;;;;;17.75;4.13;;;7.20;99.90;;;;;;5013823;28;20057;-66
2022/11/24 08:46:48;;;;;;;15.15;3.53;;;7.10;99.90;;;;;;5027297;28;20146;-65
2022/11/24 08:49:17;;;;;;;18.65;3.60;;;7.20;99.90;;;;;;5014308;28;20042;-64
2022/11/24 08:51:43;;;;;;;17.27;3.67;;;7.10;99.90;;;;;;4993121;28;20050;-64
2022/11/24 08:54:12;;;;;;;15.23;3.35;;;7.20;99.90;;;;;;5018954;28;20088;-64
2022/11/24 08:56:38;;;;;;;11.73;3.30;;;7.20;99.90;;;;;;5005301;28;20058;-65
2022/11/24 08:59:03;;;;;;;14.93;3.97;;;7.20;99.90;;;;;;4998135;28;20510;-64
2022/11/24 09:01:29;;;;;;;14.02;3.88;;;7.20;99.90;;;;;;4976271;28;20052;-65
2022/11/24 09:03:55;;;;;;;15.45;3.65;;;7.20;99.90;;;;;;4985944;28;20042;-64
2022/11/24 09:06:26;;;;;;;20.35;4.40;;;7.30;99.90;;;;;;5005764;28;20096;-64
2022/11/24 09:08:55;;;;;;;18.85;3.72;;;7.30;99.90;;;;;;5008738;28;20049;-65
2022/11/24 09:11:22;;;;;;;20.23;4.20;;;7.30;99.90;;;;;;5006123;28;20050;-65
2022/11/24 09:13:49;;;;;;;18.33;4.30;;;7.30;99.90;;;;;;5007437;28;20045;-65
2022/11/24 09:16:23;;;;;;;15.52;4.00;;;7.30;99.90;;;;;;5036824;28;20073;-65
2022/11/24 09:18:57;;;;;;;12.98;3.97;;;7.30;99.90;;;;;;4993782;28;20057;-64
2022/11/24 09:21:23;;;;;;;14.63;3.97;;;7.40;99.90;;;;;;5010508;28;20046;-63
2022/11/24 09:23:49;;;;;;;17.92;5.03;;;7.40;99.90;;;;;;5007920;28;20419;-64
2022/11/24 09:26:17;;;;;;;17.85;4.53;;;7.50;99.90;;;;;;4989154;28;20054;-64
2022/11/24 09:28:43;;;;;;;13.75;3.58;;;7.50;99.90;;;;;;5009062;28;20176;-65
2022/11/24 09:31:10;;;;;;;14.45;5.10;;;7.60;99.90;;;;;;5005806;28;20057;-64
2022/11/24 09:33:36;;;;;;;14.60;5.65;;;7.60;99.90;;;;;;5009403;28;20042;-64
2022/11/24 09:36:01;;;;;;;17.00;5.22;;;7.70;99.90;;;;;;5006364;28;20104;-64
2022/11/24 09:38:27;;;;;;;16.33;4.82;;;7.80;99.90;;;;;;5022107;28;20077;-64
2022/11/24 09:40:53;;;;;;;22.58;5.05;;;7.80;99.90;;;;;;4993301;28;20136;-66
2022/11/24 09:43:43;;;;;;;16.10;4.57;;;7.90;99.90;;;;;;4992351;28;20534;-64
2022/11/24 09:46:30;;;;;;;14.75;3.58;;;8.00;99.90;;;;;;4992418;28;20945;-69
2022/11/24 09:48:56;;;;;;;18.80;4.80;;;8.20;99.90;;;;;;5009476;28;20056;-70
2022/11/24 09:51:27;;;;;;;17.00;4.30;;;8.30;99.90;;;;;;4992068;28;20053;-70
2022/11/24 09:53:58;;;;;;;20.20;4.28;;;8.30;99.90;;;;;;4992880;28;20046;-71
2022/11/24 09:56:27;;;;;;;17.95;4.15;;;8.50;99.90;;;;;;5007767;28;20452;-70
2022/11/24 09:59:01;;;;;;;18.42;4.38;;;8.80;99.90;;;;;;5009098;28;20505;-70
2022/11/24 10:01:31;;;;;;;14.75;3.90;;;9.00;99.90;;;;;;5007842;28;20053;-70
2022/11/24 10:03:57;;;;;;;23.08;4.55;;;9.30;99.90;;;;;;5008949;28;20041;-69
2022/11/24 10:06:23;;;;;;;18.27;3.42;;;9.50;99.90;;;;;;5009025;28;20045;-70
2022/11/24 10:09:25;;;;;;;15.75;3.10;;;9.70;99.90;;;;;;5006971;28;20505;-70
2022/11/24 10:12:17;;;;;;;13.82;3.50;;;9.90;99.90;;;;;;5005550;28;20057;-71
2022/11/24 10:15:04;;;;;;;16.45;3.22;;;10.10;99.90;;;;;;5008422;28;20718;-69
2022/11/24 10:18:01;;;;;;;13.07;3.30;;;10.30;99.90;;;;;;4997314;28;20082;-69
2022/11/24 10:20:35;;;;;;;12.48;2.80;;;10.30;99.90;;;;;;5038455;28;20042;-70
2022/11/24 10:23:22;;;;;;;14.93;3.17;;;10.30;99.90;;;;;;5006342;28;20045;-70
2022/11/24 10:25:55;;;;;;;13.18;2.83;;;10.40;99.90;;;;;;5009391;28;20052;-70
2022/11/24 10:28:22;;;;;;;11.82;3.25;;;10.40;99.90;;;;;;5006068;28;20046;-70
2022/11/24 10:30:47;;;;;;;11.48;3.00;;;10.30;99.90;;;;;;5004500;28;20082;-70
2022/11/24 10:33:19;;;;;;;14.13;3.20;;;10.30;99.90;;;;;;5023516;28;20452;-70
2022/11/24 10:35:57;;;;;;;18.13;2.88;;;10.20;99.90;;;;;;5023902;28;20540;-70
2022/11/24 10:38:34;;;;;;;10.25;2.55;;;10.20;99.90;;;;;;4996142;28;20096;-71
2022/11/24 10:41:06;;;;;;;9.30;2.22;;;10.10;99.90;;;;;;5012286;28;20054;-70
2022/11/24 10:43:32;;;;;;;11.40;3.08;;;10.30;99.90;;;;;;5008809;28;20061;-70
2022/11/24 10:46:09;;;;;;;9.93;3.38;;;10.30;99.90;;;;;;5035927;28;20360;-69
2022/11/24 10:49:12;;;;;;;11.05;2.25;;;10.30;99.90;;;;;;5010842;28;20068;-70
2022/11/24 10:52:00;;;;;;;13.35;2.78;;;10.40;99.90;;;;;;4993951;28;20060;-70
2022/11/24 10:54:25;;;;;;;12.55;2.85;;;10.30;99.90;;;;;;5043080;28;20670;-70
2022/11/24 10:56:52;;;;;;;14.05;3.22;;;10.20;99.90;;;;;;5012511;28;20057;-70
2022/11/24 10:59:25;;;;;;;11.02;2.70;;;10.20;99.90;;;;;;5012107;28;20162;-71
2022/11/24 11:01:51;;;;;;;16.40;3.13;;;10.20;99.90;;;;;;5029078;28;20077;-70
2022/11/24 11:04:24;;;;;;;14.63;2.67;;;10.20;99.90;;;;;;5015507;28;20049;-71
2022/11/24 11:06:49;;;;;;;14.05;3.10;;;10.10;99.90;;;;;;5027820;28;20077;-72
2022/11/24 11:09:19;;;;;;;11.93;3.13;;;10.00;99.90;;;;;;4995154;28;20100;-70
2022/11/24 11:11:47;;;;;;;11.85;3.50;;;10.00;99.90;;;;;;5027406;28;20856;-65
2022/11/24 11:14:40;;;;;;;11.70;4.20;;;9.90;99.90;;;;;;5011226;28;20559;-64
2022/11/24 11:17:29;;;;;;;16.27;3.78;;;9.80;99.90;;;;;;5010698;28;20384;-66
2022/11/24 11:19:55;;;;;;;10.50;3.25;;;9.80;99.90;;;;;;4993519;28;20065;-64
2022/11/24 11:22:27;;;;;;;11.60;3.40;;;10.10;99.90;;;;;;5011664;28;20076;-65
2022/11/24 11:25:11;;;;;;;14.30;3.17;;;10.30;99.90;;;;;;5009805;28;20057;-64
2022/11/24 11:27:37;;;;;;;12.35;2.78;;;10.20;99.90;;;;;;5008571;28;20041;-66
2022/11/24 11:30:23;;;;;;;13.45;3.28;;;10.80;99.90;;;;;;5010800;28;20042;-69
2022/11/24 11:32:55;;;;;;;16.67;3.67;;;11.40;99.90;;;;;;5008523;28;20057;-64
2022/11/24 11:35:25;;;;;;;11.77;3.30;;;11.60;99.90;;;;;;4994734;28;20070;-67
2022/11/24 11:38:01;;;;;;;11.93;2.60;;;11.00;99.90;;;;;;5011204;28;20471;-68
2022/11/24 11:40:28;;;;;;;13.07;3.28;;;11.00;99.90;;;;;;5009097;28;20057;-67
2022/11/24 11:43:21;;;;;;;10.63;3.58;;;11.10;99.90;;;;;;5010523;28;20053;-67
2022/11/24 11:45:46;;;;;;;16.50;3.20;;;11.40;99.90;;;;;;4983041;28;20054;-65
2022/11/24 11:48:31;;;;;;;10.82;2.67;;;11.30;99.90;;;;;;5011751;28;20049;-65
2022/11/24 11:51:01;;;;;;;13.68;2.63;;;11.20;99.90;;;;;;5010145;28;20053;-65
2022/11/24 11:53:35;;;;;;;13.10;3.22;;;10.90;99.90;;;;;;5008996;28;20041;-66
2022/11/24 11:56:04;;;;;;;15.48;3.70;;;11.00;99.90;;;;;;5042628;28;20531;-66
2022/11/24 11:58:36;;;;;;;;;;;10.90;99.90;;;;;;5010425;28;20049;-67
2022/11/24 12:01:06;;;;;;;13.75;3.55;;;10.70;99.90;;;;;;5010608;28;20386;-67
2022/11/24 12:03:53;;;;;;;11.70;2.78;;;10.60;99.90;;;;;;4987415;28;20152;-66
2022/11/24 12:06:28;;;;;;;18.58;5.53;;;10.50;99.90;;;;;;4994212;28;20132;-67
2022/11/24 12:09:10;;;;;;;8.43;2.83;;;10.40;99.90;;;;;;5025323;28;20112;-65
2022/11/24 12:11:43;;;;;;;12.82;3.08;;;10.40;99.90;;;;;;5009814;28;20049;-66
2022/11/24 12:14:38;;;;;;;16.83;3.75;;;10.30;99.90;;;;;;4999992;28;20547;-65
2022/11/24 12:17:13;;;;;;;15.80;3.45;;;10.20;99.90;;;;;;4995004;28;20077;-66
2022/11/24 12:19:59;;;;;;;11.93;2.47;;;10.10;99.90;;;;;;5009237;28;20069;-65
2022/11/24 12:22:53;;;;;;;13.70;5.10;;;10.20;99.90;;;;;;5011288;28;20054;-65
2022/11/24 12:25:21;;;;;;;15.75;3.85;;;10.20;99.90;;;;;;5024169;28;20156;-66
2022/11/24 12:28:19;;;;;;;19.85;4.05;;;10.10;99.90;;;;;;5023798;28;20106;-65
2022/11/24 12:30:59;;;;;;;15.07;3.05;;;10.00;99.90;;;;;;4991174;28;20050;-65
2022/11/24 12:33:49;;;;;;;13.38;2.95;;;10.10;99.90;;;;;;5010546;28;20527;-66
2022/11/24 12:36:46;;;;;;;17.27;3.45;;;10.10;99.90;;;;;;4993011;28;20133;-66
2022/11/24 12:39:32;;;;;;;15.15;2.83;;;10.10;99.90;;;;;;5009848;28;20049;-65
2022/11/24 12:42:20;;;;;;;19.25;3.40;;;10.20;99.90;;;;;;4992659;28;20076;-65
2022/11/24 12:45:02;;;;;;;13.10;3.22;;;10.20;99.90;;;;;;5009506;28;20058;-66
2022/11/24 12:47:54;;;;;;;14.55;2.97;;;10.50;99.90;;;;;;5009509;28;20070;-65
2022/11/24 12:50:28;;;;;;;15.05;2.90;;;10.50;99.90;;;;;;4993889;28;20098;-66
2022/11/24 12:52:59;;;;;;;12.23;2.60;;;10.50;99.90;;;;;;5004365;28;20056;-65
2022/11/24 12:55:27;;;;;;;17.50;3.50;;;10.50;99.90;;;;;;5008262;28;20074;-66
2022/11/24 12:58:15;;;;;;;12.10;3.33;;;10.60;99.90;;;;;;5008911;28;20041;-65
2022/11/24 13:01:12;;;;;;;11.52;3.13;;;10.90;99.90;;;;;;4993086;28;20095;-65